sensor_id;sensor_type;location;lat;lon;timestamp;P1;durP1;ratioP1;P2;durP2;ratioP2
75005;SDS011;63553;51.814;4.600;2023-04-01T00:02:07;5.40;;;2.03;;
75005;SDS011;63553;51.814;4.600;2023-04-01T00:04:32;3.72;;;1.75;;
75005;SDS011;63553;51.814;4.600;2023-04-01T00:06:58;5.68;;;1.90;;
75005;SDS011;63553;51.814;4.600;2023-04-01T00:09:25;4.90;;;2.03;;
75005;SDS011;63553;51.814;4.600;2023-04-01T00:11:50;11.30;;;3.53;;
75005;SDS011;63553;51.814;4.600;2023-04-01T00:14:15;4.13;;;2.00;;
75005;SDS011;63553;51.814;4.600;2023-04-01T00:16:44;6.47;;;2.07;;
75005;SDS011;63553;51.814;4.600;2023-04-01T00:19:09;4.15;;;2.05;;
75005;SDS011;63553;51.814;4.600;2023-04-01T00:21:35;7.37;;;2.43;;
75005;SDS011;63553;51.814;4.600;2023-04-01T00:24:01;6.60;;;2.50;;
75005;SDS011;63553;51.814;4.600;2023-04-01T00:26:27;8.00;;;2.35;;
75005;SDS011;63553;51.814;4.600;2023-04-01T00:28:52;9.95;;;2.50;;
75005;SDS011;63553;51.814;4.600;2023-04-01T00:31:18;8.17;;;2.67;;
75005;SDS011;63553;51.814;4.600;2023-04-01T00:33:43;9.63;;;2.50;;
75005;SDS011;63553;51.814;4.600;2023-04-01T00:36:10;7.10;;;2.47;;
75005;SDS011;63553;51.814;4.600;2023-04-01T00:38:37;7.82;;;2.58;;
75005;SDS011;63553;51.814;4.600;2023-04-01T00:41:03;7.05;;;2.63;;
75005;SDS011;63553;51.814;4.600;2023-04-01T00:43:29;9.75;;;2.80;;
75005;SDS011;63553;51.814;4.600;2023-04-01T00:45:55;8.75;;;2.70;;
75005;SDS011;63553;51.814;4.600;2023-04-01T00:48:24;11.07;;;3.03;;
75005;SDS011;63553;51.814;4.600;2023-04-01T00:51:15;7.88;;;3.05;;
75005;SDS011;63553;51.814;4.600;2023-04-01T00:53:43;7.35;;;2.78;;
75005;SDS011;63553;51.814;4.600;2023-04-01T00:56:25;8.75;;;2.58;;
75005;SDS011;63553;51.814;4.600;2023-04-01T00:58:57;8.75;;;2.83;;
75005;SDS011;63553;51.814;4.600;2023-04-01T01:01:25;6.97;;;2.30;;
75005;SDS011;63553;51.814;4.600;2023-04-01T01:03:51;8.93;;;2.78;;
75005;SDS011;63553;51.814;4.600;2023-04-01T01:09:08;7.35;;;2.53;;
75005;SDS011;63553;51.814;4.600;2023-04-01T01:11:37;7.32;;;2.60;;
75005;SDS011;63553;51.814;4.600;2023-04-01T01:16:53;8.00;;;2.85;;
75005;SDS011;63553;51.814;4.600;2023-04-01T01:28:06;8.73;;;2.70;;
75005;SDS011;63553;51.814;4.600;2023-04-01T01:36:28;8.05;;;2.60;;
75005;SDS011;63553;51.814;4.600;2023-04-01T01:38:59;11.25;;;3.15;;
75005;SDS011;63553;51.814;4.600;2023-04-01T01:41:27;7.07;;;3.03;;
75005;SDS011;63553;51.814;4.600;2023-04-01T01:43:56;6.05;;;2.35;;
75005;SDS011;63553;51.814;4.600;2023-04-01T01:46:24;11.50;;;2.90;;
75005;SDS011;63553;51.814;4.600;2023-04-01T01:48:52;8.68;;;2.47;;
75005;SDS011;63553;51.814;4.600;2023-04-01T01:51:19;5.68;;;2.63;;
75005;SDS011;63553;51.814;4.600;2023-04-01T01:53:46;5.85;;;2.50;;
75005;SDS011;63553;51.814;4.600;2023-04-01T01:56:11;5.27;;;2.20;;
75005;SDS011;63553;51.814;4.600;2023-04-01T01:58:51;9.32;;;2.60;;
75005;SDS011;63553;51.814;4.600;2023-04-01T02:01:22;9.38;;;2.38;;
75005;SDS011;63553;51.814;4.600;2023-04-01T02:06:17;9.10;;;2.42;;
75005;SDS011;63553;51.814;4.600;2023-04-01T02:08:47;8.95;;;2.58;;
75005;SDS011;63553;51.814;4.600;2023-04-01T02:11:18;6.88;;;2.47;;
75005;SDS011;63553;51.814;4.600;2023-04-01T02:16:23;5.20;;;2.70;;
75005;SDS011;63553;51.814;4.600;2023-04-01T02:18:54;8.38;;;2.40;;
75005;SDS011;63553;51.814;4.600;2023-04-01T02:21:23;4.70;;;2.40;;
75005;SDS011;63553;51.814;4.600;2023-04-01T02:23:52;9.15;;;2.40;;
75005;SDS011;63553;51.814;4.600;2023-04-01T02:26:18;8.68;;;2.33;;
75005;SDS011;63553;51.814;4.600;2023-04-01T02:28:45;3.60;;;2.10;;
75005;SDS011;63553;51.814;4.600;2023-04-01T02:31:13;5.03;;;1.90;;
75005;SDS011;63553;51.814;4.600;2023-04-01T02:33:39;7.18;;;2.85;;
75005;SDS011;63553;51.814;4.600;2023-04-01T02:36:05;5.60;;;2.42;;
75005;SDS011;63553;51.814;4.600;2023-04-01T02:38:35;6.47;;;2.17;;
75005;SDS011;63553;51.814;4.600;2023-04-01T02:41:01;5.15;;;2.47;;
75005;SDS011;63553;51.814;4.600;2023-04-01T02:43:28;6.18;;;2.08;;
75005;SDS011;63553;51.814;4.600;2023-04-01T02:45:53;5.35;;;2.83;;
75005;SDS011;63553;51.814;4.600;2023-04-01T02:48:19;5.90;;;2.20;;
75005;SDS011;63553;51.814;4.600;2023-04-01T02:50:45;5.45;;;2.30;;
75005;SDS011;63553;51.814;4.600;2023-04-01T02:53:11;4.88;;;1.83;;
75005;SDS011;63553;51.814;4.600;2023-04-01T02:55:37;5.82;;;2.67;;
75005;SDS011;63553;51.814;4.600;2023-04-01T02:58:02;5.15;;;2.00;;
75005;SDS011;63553;51.814;4.600;2023-04-01T03:00:28;2.83;;;1.83;;
75005;SDS011;63553;51.814;4.600;2023-04-01T03:02:53;5.97;;;2.10;;
75005;SDS011;63553;51.814;4.600;2023-04-01T03:05:19;3.53;;;2.00;;
75005;SDS011;63553;51.814;4.600;2023-04-01T03:07:45;5.10;;;1.83;;
75005;SDS011;63553;51.814;4.600;2023-04-01T03:10:10;6.80;;;2.05;;
75005;SDS011;63553;51.814;4.600;2023-04-01T03:12:36;5.05;;;2.35;;
75005;SDS011;63553;51.814;4.600;2023-04-01T03:15:01;7.28;;;2.10;;
75005;SDS011;63553;51.814;4.600;2023-04-01T03:17:27;2.97;;;1.88;;
75005;SDS011;63553;51.814;4.600;2023-04-01T03:19:52;6.03;;;1.50;;
75005;SDS011;63553;51.814;4.600;2023-04-01T03:22:18;4.60;;;2.22;;
75005;SDS011;63553;51.814;4.600;2023-04-01T03:24:46;5.15;;;1.73;;
75005;SDS011;63553;51.814;4.600;2023-04-01T03:27:11;4.35;;;2.05;;
75005;SDS011;63553;51.814;4.600;2023-04-01T03:29:37;4.50;;;1.70;;
75005;SDS011;63553;51.814;4.600;2023-04-01T03:32:02;4.00;;;1.73;;
75005;SDS011;63553;51.814;4.600;2023-04-01T03:34:27;4.53;;;1.63;;
75005;SDS011;63553;51.814;4.600;2023-04-01T03:36:53;4.20;;;1.57;;
75005;SDS011;63553;51.814;4.600;2023-04-01T03:39:18;3.53;;;1.53;;
75005;SDS011;63553;51.814;4.600;2023-04-01T03:41:44;3.13;;;1.98;;
75005;SDS011;63553;51.814;4.600;2023-04-01T03:44:10;2.97;;;1.30;;
75005;SDS011;63553;51.814;4.600;2023-04-01T03:46:36;2.80;;;1.50;;
75005;SDS011;63553;51.814;4.600;2023-04-01T03:49:01;3.47;;;1.60;;
75005;SDS011;63553;51.814;4.600;2023-04-01T03:51:27;2.33;;;1.40;;
75005;SDS011;63553;51.814;4.600;2023-04-01T03:53:53;3.08;;;1.98;;
75005;SDS011;63553;51.814;4.600;2023-04-01T03:56:18;2.63;;;1.40;;
75005;SDS011;63553;51.814;4.600;2023-04-01T03:58:43;2.50;;;1.47;;
75005;SDS011;63553;51.814;4.600;2023-04-01T04:01:15;3.20;;;1.60;;
75005;SDS011;63553;51.814;4.600;2023-04-01T04:03:42;3.80;;;1.80;;
75005;SDS011;63553;51.814;4.600;2023-04-01T04:06:15;1.83;;;1.65;;
75005;SDS011;63553;51.814;4.600;2023-04-01T04:08:42;3.33;;;1.70;;
75005;SDS011;63553;51.814;4.600;2023-04-01T04:11:08;2.55;;;1.60;;
75005;SDS011;63553;51.814;4.600;2023-04-01T04:13:34;3.40;;;1.77;;
75005;SDS011;63553;51.814;4.600;2023-04-01T04:16:00;4.32;;;2.03;;
75005;SDS011;63553;51.814;4.600;2023-04-01T04:18:26;2.60;;;1.77;;
75005;SDS011;63553;51.814;4.600;2023-04-01T04:20:51;2.00;;;1.63;;
75005;SDS011;63553;51.814;4.600;2023-04-01T04:23:17;3.40;;;2.30;;
75005;SDS011;63553;51.814;4.600;2023-04-01T04:25:52;3.65;;;1.75;;
75005;SDS011;63553;51.814;4.600;2023-04-01T04:28:38;2.95;;;1.90;;
75005;SDS011;63553;51.814;4.600;2023-04-01T04:31:04;2.08;;;1.60;;
75005;SDS011;63553;51.814;4.600;2023-04-01T04:33:31;2.97;;;2.00;;
75005;SDS011;63553;51.814;4.600;2023-04-01T04:35:57;2.95;;;1.70;;
75005;SDS011;63553;51.814;4.600;2023-04-01T04:38:23;3.58;;;1.85;;
75005;SDS011;63553;51.814;4.600;2023-04-01T04:40:49;3.35;;;1.70;;
75005;SDS011;63553;51.814;4.600;2023-04-01T04:43:15;4.03;;;2.30;;
75005;SDS011;63553;51.814;4.600;2023-04-01T04:45:41;3.42;;;1.92;;
75005;SDS011;63553;51.814;4.600;2023-04-01T04:48:07;4.28;;;2.10;;
75005;SDS011;63553;51.814;4.600;2023-04-01T04:50:34;2.85;;;1.85;;
75005;SDS011;63553;51.814;4.600;2023-04-01T04:52:59;2.15;;;1.80;;
75005;SDS011;63553;51.814;4.600;2023-04-01T04:55:25;2.13;;;1.65;;
75005;SDS011;63553;51.814;4.600;2023-04-01T04:57:50;2.17;;;1.60;;
75005;SDS011;63553;51.814;4.600;2023-04-01T05:00:15;2.47;;;1.50;;
75005;SDS011;63553;51.814;4.600;2023-04-01T05:02:41;2.30;;;1.70;;
75005;SDS011;63553;51.814;4.600;2023-04-01T05:05:07;3.35;;;1.85;;
75005;SDS011;63553;51.814;4.600;2023-04-01T05:07:33;2.88;;;1.52;;
75005;SDS011;63553;51.814;4.600;2023-04-01T05:09:59;2.10;;;1.83;;
75005;SDS011;63553;51.814;4.600;2023-04-01T05:12:24;2.38;;;1.63;;
75005;SDS011;63553;51.814;4.600;2023-04-01T05:14:49;1.60;;;1.50;;
75005;SDS011;63553;51.814;4.600;2023-04-01T05:17:15;3.23;;;1.60;;
75005;SDS011;63553;51.814;4.600;2023-04-01T05:19:40;2.47;;;1.40;;
75005;SDS011;63553;51.814;4.600;2023-04-01T05:22:05;12.70;;;2.40;;
75005;SDS011;63553;51.814;4.600;2023-04-01T05:24:31;4.20;;;1.70;;
75005;SDS011;63553;51.814;4.600;2023-04-01T05:26:57;4.28;;;1.73;;
75005;SDS011;63553;51.814;4.600;2023-04-01T05:29:24;28.92;;;2.88;;
75005;SDS011;63553;51.814;4.600;2023-04-01T05:31:50;4.35;;;1.50;;
75005;SDS011;63553;51.814;4.600;2023-04-01T05:34:16;1.67;;;1.30;;
75005;SDS011;63553;51.814;4.600;2023-04-01T05:36:42;2.83;;;2.00;;
75005;SDS011;63553;51.814;4.600;2023-04-01T05:39:07;3.03;;;1.80;;
75005;SDS011;63553;51.814;4.600;2023-04-01T05:41:36;1.70;;;1.60;;
75005;SDS011;63553;51.814;4.600;2023-04-01T05:44:02;2.80;;;1.52;;
75005;SDS011;63553;51.814;4.600;2023-04-01T05:46:28;2.20;;;1.63;;
75005;SDS011;63553;51.814;4.600;2023-04-01T05:48:53;2.15;;;1.55;;
75005;SDS011;63553;51.814;4.600;2023-04-01T05:51:18;3.97;;;1.60;;
75005;SDS011;63553;51.814;4.600;2023-04-01T05:53:44;2.38;;;1.67;;
75005;SDS011;63553;51.814;4.600;2023-04-01T05:56:09;1.63;;;1.50;;
75005;SDS011;63553;51.814;4.600;2023-04-01T05:58:35;3.42;;;1.75;;
75005;SDS011;63553;51.814;4.600;2023-04-01T06:01:02;2.63;;;2.00;;
75005;SDS011;63553;51.814;4.600;2023-04-01T06:03:31;3.25;;;1.75;;
75005;SDS011;63553;51.814;4.600;2023-04-01T06:05:57;3.72;;;1.73;;
75005;SDS011;63553;51.814;4.600;2023-04-01T06:08:23;2.57;;;1.70;;
75005;SDS011;63553;51.814;4.600;2023-04-01T06:17:09;2.78;;;1.77;;
75005;SDS011;63553;51.814;4.600;2023-04-01T06:19:51;2.20;;;1.67;;
75005;SDS011;63553;51.814;4.600;2023-04-01T06:31:00;2.00;;;1.80;;
75005;SDS011;63553;51.814;4.600;2023-04-01T06:38:34;2.20;;;1.85;;
75005;SDS011;63553;51.814;4.600;2023-04-01T06:41:09;3.88;;;2.15;;
75005;SDS011;63553;51.814;4.600;2023-04-01T06:46:48;3.20;;;2.00;;
75005;SDS011;63553;51.814;4.600;2023-04-01T06:55:52;3.70;;;2.08;;
75005;SDS011;63553;51.814;4.600;2023-04-01T06:58:13;2.55;;;1.88;;
75005;SDS011;63553;51.814;4.600;2023-04-01T07:01:04;2.40;;;1.75;;
75005;SDS011;63553;51.814;4.600;2023-04-01T07:03:33;2.63;;;1.73;;
75005;SDS011;63553;51.814;4.600;2023-04-01T07:06:18;3.13;;;2.20;;
75005;SDS011;63553;51.814;4.600;2023-04-01T07:08:53;5.57;;;1.83;;
75005;SDS011;63553;51.814;4.600;2023-04-01T07:11:27;2.90;;;2.38;;
75005;SDS011;63553;51.814;4.600;2023-04-01T07:13:59;4.05;;;1.98;;
75005;SDS011;63553;51.814;4.600;2023-04-01T07:16:40;3.67;;;2.20;;
75005;SDS011;63553;51.814;4.600;2023-04-01T07:19:16;1.90;;;1.63;;
75005;SDS011;63553;51.814;4.600;2023-04-01T07:21:48;3.15;;;2.30;;
75005;SDS011;63553;51.814;4.600;2023-04-01T07:24:17;4.15;;;2.03;;
75005;SDS011;63553;51.814;4.600;2023-04-01T07:26:52;6.05;;;2.00;;
75005;SDS011;63553;51.814;4.600;2023-04-01T07:29:20;2.97;;;1.73;;
75005;SDS011;63553;51.814;4.600;2023-04-01T07:36:51;7.38;;;2.35;;
75005;SDS011;63553;51.814;4.600;2023-04-01T07:53:01;2.90;;;2.00;;
75005;SDS011;63553;51.814;4.600;2023-04-01T07:55:31;1.95;;;1.70;;
75005;SDS011;63553;51.814;4.600;2023-04-01T07:58:21;2.67;;;1.88;;
75005;SDS011;63553;51.814;4.600;2023-04-01T08:01:10;2.05;;;1.85;;
75005;SDS011;63553;51.814;4.600;2023-04-01T08:06:20;2.97;;;1.90;;
75005;SDS011;63553;51.814;4.600;2023-04-01T08:14:22;2.35;;;1.80;;
75005;SDS011;63553;51.814;4.600;2023-04-01T08:22:33;1.60;;;1.50;;
75005;SDS011;63553;51.814;4.600;2023-04-01T08:25:27;3.80;;;1.70;;
75005;SDS011;63553;51.814;4.600;2023-04-01T08:27:57;2.10;;;1.65;;
75005;SDS011;63553;51.814;4.600;2023-04-01T08:30:35;2.60;;;1.60;;
75005;SDS011;63553;51.814;4.600;2023-04-01T08:33:15;1.83;;;1.40;;
75005;SDS011;63553;51.814;4.600;2023-04-01T08:52:34;1.20;;;1.20;;
75005;SDS011;63553;51.814;4.600;2023-04-01T08:55:09;1.20;;;1.10;;
75005;SDS011;63553;51.814;4.600;2023-04-01T08:57:59;1.50;;;1.40;;
75005;SDS011;63553;51.814;4.600;2023-04-01T09:00:32;1.50;;;1.40;;
75005;SDS011;63553;51.814;4.600;2023-04-01T09:03:09;2.83;;;1.50;;
75005;SDS011;63553;51.814;4.600;2023-04-01T09:17:21;1.63;;;1.50;;
75005;SDS011;63553;51.814;4.600;2023-04-01T09:25:23;1.40;;;1.30;;
75005;SDS011;63553;51.814;4.600;2023-04-01T09:36:18;3.15;;;2.00;;
75005;SDS011;63553;51.814;4.600;2023-04-01T09:38:55;4.95;;;2.70;;
75005;SDS011;63553;51.814;4.600;2023-04-01T09:44:02;4.03;;;2.35;;
75005;SDS011;63553;51.814;4.600;2023-04-01T09:49:38;4.63;;;2.58;;
75005;SDS011;63553;51.814;4.600;2023-04-01T10:17:31;4.13;;;2.42;;
75005;SDS011;63553;51.814;4.600;2023-04-01T10:25:10;2.88;;;2.15;;
75005;SDS011;63553;51.814;4.600;2023-04-01T10:27:56;3.70;;;2.40;;
75005;SDS011;63553;51.814;4.600;2023-04-01T10:30:51;2.92;;;2.45;;
75005;SDS011;63553;51.814;4.600;2023-04-01T10:45:26;2.90;;;2.35;;
75005;SDS011;63553;51.814;4.600;2023-04-01T10:56:47;2.40;;;2.05;;
75005;SDS011;63553;51.814;4.600;2023-04-01T11:12:37;2.53;;;1.95;;
75005;SDS011;63553;51.814;4.600;2023-04-01T11:25:55;3.55;;;1.90;;
75005;SDS011;63553;51.814;4.600;2023-04-01T11:33:57;2.30;;;1.77;;
75005;SDS011;63553;51.814;4.600;2023-04-01T11:39:20;1.98;;;1.85;;
75005;SDS011;63553;51.814;4.600;2023-04-01T11:42:19;1.70;;;1.60;;
75005;SDS011;63553;51.814;4.600;2023-04-01T11:45:07;1.95;;;1.67;;
75005;SDS011;63553;51.814;4.600;2023-04-01T11:47:48;1.98;;;1.80;;
75005;SDS011;63553;51.814;4.600;2023-04-01T11:50:21;2.90;;;2.00;;
75005;SDS011;63553;51.814;4.600;2023-04-01T12:01:05;1.77;;;1.58;;
75005;SDS011;63553;51.814;4.600;2023-04-01T12:14:58;1.83;;;1.58;;
75005;SDS011;63553;51.814;4.600;2023-04-01T12:17:44;1.50;;;1.40;;
75005;SDS011;63553;51.814;4.600;2023-04-01T12:21:17;2.30;;;1.70;;
75005;SDS011;63553;51.814;4.600;2023-04-01T12:29:41;15.38;;;2.45;;
75005;SDS011;63553;51.814;4.600;2023-04-01T12:45:55;7.10;;;2.40;;
75005;SDS011;63553;51.814;4.600;2023-04-01T13:08:27;5.38;;;2.40;;
75005;SDS011;63553;51.814;4.600;2023-04-01T13:16:42;4.07;;;2.25;;
75005;SDS011;63553;51.814;4.600;2023-04-01T13:24:37;2.72;;;1.98;;
75005;SDS011;63553;51.814;4.600;2023-04-01T13:29:41;2.22;;;2.00;;
75005;SDS011;63553;51.814;4.600;2023-04-01T13:35:04;2.78;;;1.92;;
75005;SDS011;63553;51.814;4.600;2023-04-01T13:48:29;2.08;;;1.73;;
75005;SDS011;63553;51.814;4.600;2023-04-01T13:59:51;2.55;;;1.98;;
75005;SDS011;63553;51.814;4.600;2023-04-01T14:13:27;2.28;;;2.00;;
75005;SDS011;63553;51.814;4.600;2023-04-01T14:21:29;4.05;;;2.67;;
75005;SDS011;63553;51.814;4.600;2023-04-01T14:24:01;4.47;;;2.40;;
75005;SDS011;63553;51.814;4.600;2023-04-01T14:34:53;2.85;;;2.42;;
75005;SDS011;63553;51.814;4.600;2023-04-01T14:37:48;2.85;;;2.30;;
75005;SDS011;63553;51.814;4.600;2023-04-01T14:46:17;3.72;;;2.20;;
75005;SDS011;63553;51.814;4.600;2023-04-01T14:48:57;2.22;;;2.03;;
75005;SDS011;63553;51.814;4.600;2023-04-01T14:51:33;2.83;;;2.20;;
75005;SDS011;63553;51.814;4.600;2023-04-01T14:56:34;3.22;;;2.08;;
75005;SDS011;63553;51.814;4.600;2023-04-01T14:59:07;3.28;;;2.20;;
75005;SDS011;63553;51.814;4.600;2023-04-01T15:07:06;2.88;;;2.13;;
75005;SDS011;63553;51.814;4.600;2023-04-01T15:09:58;3.10;;;2.00;;
75005;SDS011;63553;51.814;4.600;2023-04-01T15:12:53;1.90;;;1.80;;
75005;SDS011;63553;51.814;4.600;2023-04-01T15:15:59;2.15;;;1.77;;
75005;SDS011;63553;51.814;4.600;2023-04-01T15:18:49;4.40;;;2.10;;
75005;SDS011;63553;51.814;4.600;2023-04-01T15:27:15;3.15;;;1.80;;
75005;SDS011;63553;51.814;4.600;2023-04-01T15:40:37;16.60;;;5.70;;
75005;SDS011;63553;51.814;4.600;2023-04-01T15:51:28;156.80;;;22.75;;
75005;SDS011;63553;51.814;4.600;2023-04-01T15:54:18;377.60;;;36.30;;
75005;SDS011;63553;51.814;4.600;2023-04-01T15:57:18;340.95;;;44.35;;
75005;SDS011;63553;51.814;4.600;2023-04-01T16:00:11;31.13;;;7.53;;
75005;SDS011;63553;51.814;4.600;2023-04-01T16:02:48;5.93;;;2.33;;
75005;SDS011;63553;51.814;4.600;2023-04-01T16:10:58;6.22;;;3.17;;
75005;SDS011;63553;51.814;4.600;2023-04-01T16:14:11;5.50;;;2.65;;
75005;SDS011;63553;51.814;4.600;2023-04-01T16:16:31;3.15;;;2.28;;
75005;SDS011;63553;51.814;4.600;2023-04-01T16:21:53;6.25;;;2.78;;
75005;SDS011;63553;51.814;4.600;2023-04-01T16:29:59;2.75;;;2.55;;
75005;SDS011;63553;51.814;4.600;2023-04-01T16:32:37;2.78;;;2.53;;
75005;SDS011;63553;51.814;4.600;2023-04-01T16:35:14;5.75;;;3.83;;
75005;SDS011;63553;51.814;4.600;2023-04-01T16:38:07;4.47;;;3.03;;
75005;SDS011;63553;51.814;4.600;2023-04-01T16:40:52;3.35;;;3.05;;
75005;SDS011;63553;51.814;4.600;2023-04-01T16:43:35;4.50;;;3.20;;
75005;SDS011;63553;51.814;4.600;2023-04-01T16:51:40;5.53;;;3.95;;
75005;SDS011;63553;51.814;4.600;2023-04-01T16:57:11;3.85;;;3.35;;
75005;SDS011;63553;51.814;4.600;2023-04-01T17:00:02;5.18;;;3.40;;
75005;SDS011;63553;51.814;4.600;2023-04-01T17:02:38;3.70;;;3.30;;
75005;SDS011;63553;51.814;4.600;2023-04-01T17:05:12;4.85;;;3.30;;
75005;SDS011;63553;51.814;4.600;2023-04-01T17:12:44;3.78;;;2.97;;
75005;SDS011;63553;51.814;4.600;2023-04-01T17:18:00;6.37;;;3.70;;
75005;SDS011;63553;51.814;4.600;2023-04-01T17:20:31;3.92;;;3.53;;
75005;SDS011;63553;51.814;4.600;2023-04-01T17:32:09;3.90;;;3.30;;
75005;SDS011;63553;51.814;4.600;2023-04-01T17:35:01;7.00;;;3.53;;
75005;SDS011;63553;51.814;4.600;2023-04-01T17:37:33;3.80;;;3.38;;
75005;SDS011;63553;51.814;4.600;2023-04-01T17:40:12;3.95;;;3.20;;
75005;SDS011;63553;51.814;4.600;2023-04-01T17:54:01;4.38;;;3.40;;
75005;SDS011;63553;51.814;4.600;2023-04-01T18:02:15;3.03;;;2.83;;
75005;SDS011;63553;51.814;4.600;2023-04-01T18:27:00;6.95;;;3.20;;
75005;SDS011;63553;51.814;4.600;2023-04-01T18:29:31;5.93;;;3.00;;
75005;SDS011;63553;51.814;4.600;2023-04-01T18:32:13;7.18;;;3.03;;
75005;SDS011;63553;51.814;4.600;2023-04-01T18:34:57;7.93;;;3.60;;
75005;SDS011;63553;51.814;4.600;2023-04-01T18:37:37;15.80;;;4.10;;
75005;SDS011;63553;51.814;4.600;2023-04-01T18:42:57;6.75;;;3.50;;
75005;SDS011;63553;51.814;4.600;2023-04-01T18:45:43;9.13;;;3.88;;
75005;SDS011;63553;51.814;4.600;2023-04-01T18:48:30;6.15;;;3.83;;
75005;SDS011;63553;51.814;4.600;2023-04-01T18:51:11;4.50;;;3.05;;
75005;SDS011;63553;51.814;4.600;2023-04-01T18:53:53;6.20;;;3.50;;
75005;SDS011;63553;51.814;4.600;2023-04-01T18:56:30;5.82;;;3.70;;
75005;SDS011;63553;51.814;4.600;2023-04-01T19:02:13;4.82;;;3.50;;
75005;SDS011;63553;51.814;4.600;2023-04-01T19:05:09;4.60;;;3.17;;
75005;SDS011;63553;51.814;4.600;2023-04-01T19:07:52;5.60;;;3.17;;
75005;SDS011;63553;51.814;4.600;2023-04-01T19:10:31;5.70;;;3.22;;
75005;SDS011;63553;51.814;4.600;2023-04-01T19:19:19;4.35;;;2.75;;
75005;SDS011;63553;51.814;4.600;2023-04-01T19:21:57;6.07;;;3.40;;
75005;SDS011;63553;51.814;4.600;2023-04-01T19:30:38;5.40;;;2.70;;
75005;SDS011;63553;51.814;4.600;2023-04-01T19:36:59;3.00;;;2.67;;
75005;SDS011;63553;51.814;4.600;2023-04-01T19:44:50;4.75;;;2.33;;
75005;SDS011;63553;51.814;4.600;2023-04-01T19:50:09;3.00;;;2.20;;
75005;SDS011;63553;51.814;4.600;2023-04-01T19:52:50;2.83;;;2.30;;
75005;SDS011;63553;51.814;4.600;2023-04-01T20:01:22;3.63;;;2.25;;
75005;SDS011;63553;51.814;4.600;2023-04-01T20:03:58;3.58;;;2.42;;
75005;SDS011;63553;51.814;4.600;2023-04-01T20:06:34;2.85;;;2.63;;
75005;SDS011;63553;51.814;4.600;2023-04-01T20:09:11;7.57;;;2.05;;
75005;SDS011;63553;51.814;4.600;2023-04-01T20:12:02;4.40;;;2.33;;
75005;SDS011;63553;51.814;4.600;2023-04-01T20:14:54;2.88;;;2.60;;
75005;SDS011;63553;51.814;4.600;2023-04-01T20:17:33;3.03;;;2.28;;
75005;SDS011;63553;51.814;4.600;2023-04-01T20:27:47;1.85;;;1.75;;
75005;SDS011;63553;51.814;4.600;2023-04-01T20:30:26;2.20;;;1.88;;
75005;SDS011;63553;51.814;4.600;2023-04-01T20:36:06;2.40;;;2.08;;
75005;SDS011;63553;51.814;4.600;2023-04-01T20:41:06;2.03;;;1.90;;
75005;SDS011;63553;51.814;4.600;2023-04-01T20:46:56;1.92;;;1.80;;
75005;SDS011;63553;51.814;4.600;2023-04-01T20:51:53;4.60;;;1.92;;
75005;SDS011;63553;51.814;4.600;2023-04-01T21:00:16;2.13;;;1.90;;
75005;SDS011;63553;51.814;4.600;2023-04-01T21:12:37;1.90;;;1.80;;
75005;SDS011;63553;51.814;4.600;2023-04-01T21:18:30;1.88;;;1.77;;
75005;SDS011;63553;51.814;4.600;2023-04-01T21:52:10;2.40;;;1.90;;
75005;SDS011;63553;51.814;4.600;2023-04-01T22:03:54;2.47;;;1.88;;
75005;SDS011;63553;51.814;4.600;2023-04-01T22:06:40;1.70;;;1.60;;
75005;SDS011;63553;51.814;4.600;2023-04-01T22:09:12;2.40;;;2.20;;
75005;SDS011;63553;51.814;4.600;2023-04-01T22:14:33;1.85;;;1.75;;
75005;SDS011;63553;51.814;4.600;2023-04-01T22:17:12;1.80;;;1.70;;
75005;SDS011;63553;51.814;4.600;2023-04-01T22:25:44;1.83;;;1.65;;
75005;SDS011;63553;51.814;4.600;2023-04-01T22:30:52;1.77;;;1.67;;
75005;SDS011;63553;51.814;4.600;2023-04-01T22:33:32;2.22;;;2.03;;
75005;SDS011;63553;51.814;4.600;2023-04-01T22:52:39;1.70;;;1.60;;
75005;SDS011;63553;51.814;4.600;2023-04-01T22:55:13;1.88;;;1.77;;
75005;SDS011;63553;51.814;4.600;2023-04-01T23:00:48;2.40;;;2.20;;
75005;SDS011;63553;51.814;4.600;2023-04-01T23:03:19;1.60;;;1.50;;
75005;SDS011;63553;51.814;4.600;2023-04-01T23:05:50;1.80;;;1.70;;
75005;SDS011;63553;51.814;4.600;2023-04-01T23:10:55;1.50;;;1.40;;
75005;SDS011;63553;51.814;4.600;2023-04-01T23:13:38;1.75;;;1.65;;
75005;SDS011;63553;51.814;4.600;2023-04-01T23:16:08;1.80;;;1.70;;
75005;SDS011;63553;51.814;4.600;2023-04-01T23:18:36;1.80;;;1.67;;
75005;SDS011;63553;51.814;4.600;2023-04-01T23:21:12;1.75;;;1.58;;
75005;SDS011;63553;51.814;4.600;2023-04-01T23:26:32;1.75;;;1.65;;
75005;SDS011;63553;51.814;4.600;2023-04-01T23:29:15;1.50;;;1.40;;
75005;SDS011;63553;51.814;4.600;2023-04-01T23:31:43;1.70;;;1.33;;
75005;SDS011;63553;51.814;4.600;2023-04-01T23:36:39;1.60;;;1.48;;
75005;SDS011;63553;51.814;4.600;2023-04-01T23:44:48;1.80;;;1.70;;
75005;SDS011;63553;51.814;4.600;2023-04-01T23:47:17;1.70;;;1.60;;
75005;SDS011;63553;51.814;4.600;2023-04-01T23:49:46;1.60;;;1.50;;
75005;SDS011;63553;51.814;4.600;2023-04-01T23:52:31;1.73;;;1.50;;
75005;SDS011;63553;51.814;4.600;2023-04-01T23:55:03;2.13;;;2.03;;
75005;SDS011;63553;51.814;4.600;2023-04-01T23:57:34;4.68;;;1.48;;
